Villas de Piedra Blanca, Puerto Rico
Current Conditions -  °F | °C
As of 9:50 AM on Sunday 23 Nov 2014 (Local Time) from TJBQ Reporting Station
Clear Clear  
Wind Chill: 82°   Ceiling: Unl
Heat Index: 87°   Visibility: 10mi
Dew Point: 72°   Wind: 16mph
Humidity: 70%   Direction: 100°E
Pressure: 30.07"   Gusts: 22mph
Location:  18.3413°N, 66.991°W
Report Text: TJBQ 231350Z 10014G19KT 10SM SKC 28/22 A3007 RMK RWY 08 ATIS H
Loading
Personal Weather Stations






























Interactive Weather Map New forecast layout! Learn more

10-Day Weather Forecast

Advertisements
Track Severe Weather on mobile